17 août 2022

Temps Code Temps Temp. Vue Base cloud Vent METAR/SPECI
05:30
V
16 °C 10 km+ - 310° 310° 3 kt METAR LFOB 170330Z AUTO 31003KT CAVOK 16/15 Q1009 TEMPO 4000 SHRA SCT020 BKN040CB
05:00
V
15 °C 8 km - 310° 310° 3 kt METAR LFOB 170300Z AUTO 31003KT 280V340 8000 NSC 15/15 Q1010 TEMPO 4000 SHRA SCT020 BKN040CB
04:30
V
15 °C 10 km+ - Var Var 3 kt METAR LFOB 170230Z AUTO VRB03KT CAVOK 15/15 Q1009 TEMPO 4000 SHRA SCT020 BKN040CB
04:00
V
16 °C 10 km+ - 360° 360° 4 kt METAR LFOB 170200Z AUTO 36004KT CAVOK 16/15 Q1009 TEMPO 4000 SHRA SCT020 BKN040CB
03:30
V
16 °C 10 km+ - Var Var 1 kt METAR LFOB 170130Z AUTO VRB01KT CAVOK 16/15 Q1009 TEMPO 4000 SHRA SCT020 BKN040CB
03:00
V
15 °C 9 km - 050° 050° 4 kt METAR LFOB 170100Z AUTO 05004KT 9000 NSC 15/15 Q1009 TEMPO 4000 SHRA SCT020 BKN040CB
02:30
V
15 °C 10 km+ - Var Var 2 kt METAR LFOB 170030Z AUTO VRB02KT CAVOK 15/15 Q1009 TEMPO 4000 SHRA SCT020 BKN040CB
02:00
V
15 °C 10 km+ - 350° 350° 2 kt METAR LFOB 170000Z AUTO 35002KT CAVOK 15/15 Q1009 TEMPO 4000 SHRA SCT020 BKN040CB
01:30
V
16 °C 10 km+ - 010° 010° 1 kt METAR LFOB 162330Z AUTO 01001KT CAVOK 16/15 Q1009 TEMPO 4000 SHRA BKN040CB
01:00
V
16 °C 10 km+ - 340° 340° 2 kt METAR LFOB 162300Z AUTO 34002KT CAVOK 16/15 Q1010 TEMPO 4000 SHRA BKN040CB
00:30
V
16 °C 9 km - 340° 340° 2 kt METAR LFOB 162230Z AUTO 34002KT 9000 NSC 16/15 Q1010 TEMPO 4000 SHRA BKN040CB
00:00
V
16 °C 10 km+ - 300° 300° 1 kt METAR LFOB 162200Z AUTO 30001KT CAVOK 16/16 Q1009 TEMPO 4000 SHRA BKN040CB

16 août 2022

Temps Code Temps Temp. Vue Base cloud Vent METAR/SPECI
23:30
V
16 °C 10 km+ - 240° 240° 2 kt METAR LFOB 162130Z AUTO 24002KT CAVOK 16/15 Q1009 TEMPO 4000 SHRA BKN040CB
23:00
V
16 °C 10 km+ - Var Var 2 kt METAR LFOB 162100Z AUTO VRB02KT CAVOK 16/16 Q1009 TEMPO 4000 SHRA BKN040CB
22:30
V
16 °C 10 km+ - 050° 050° 4 kt METAR LFOB 162030Z AUTO 05004KT 360V070 CAVOK 16/16 Q1010 TEMPO 4000 SHRA BKN040CB
22:00
V
17 °C 10 km+ - Var Var 3 kt METAR LFOB 162000Z AUTO VRB03KT CAVOK 17/16 Q1009 TEMPO 4000 SHRA BKN040CB
21:30
V
18 °C 10 km+ - 170° 170° 3 kt METAR LFOB 161930Z AUTO 17003KT CAVOK 18/16 Q1009 TEMPO 4000 SHRA BKN040CB
21:00
V
18 °C 10 km+ - 120° 120° 4 kt METAR LFOB 161900Z AUTO 12004KT 9999 ///TCU 18/16 Q1009 TEMPO VRB15G30KT 4000 SHRA BKN040CB
20:30
V
19 °C 10 km+ - 090° 090° 10 kt METAR LFOB 161830Z AUTO 09010KT 9999 //////CB 19/16 Q1008 TEMPO 4000 SHRA BECMG 18005KT
20:00
V
19 °C 10 km+ 6.200 ft 150° 150° 13 kt METAR LFOB 161800Z AUTO 15013KT 110V180 9999 -TSRA FEW046/// BKN062/// BKN088/// //////CB 19/16 Q1009 TEMPO VRB15G30KT 2000 TSRAGR
19:30
V
25 °C 10 km+ - 180° 180° 5 kt METAR LFOB 161730Z AUTO 18005KT 9999 -TSRA //////CB 25/16 Q1008 TEMPO VRB15G30KT 2000 TSRAGR
19:00
V
25 °C 10 km+ 13.000 ft 170° 170° 5 kt METAR LFOB 161700Z AUTO 17005KT 140V230 9999 FEW049/// SCT064/// BKN130/// //////CB 25/15 Q1008 TEMPO VRB15G30KT 2000 TSRAGR
18:30
V
26 °C 10 km+ 17.000 ft 150° 150° 5 kt METAR LFOB 161630Z AUTO 15005KT 130V210 9999 FEW047 SCT058 BKN170 26/15 Q1008 TEMPO VRB15G25KT 2000 TSRA SCT025 SCT040CB
18:00
V
26 °C 10 km+ 17.000 ft 160° 160° 5 kt METAR LFOB 161600Z AUTO 16005KT 100V210 9999 FEW048 SCT140 BKN170 26/16 Q1008 TEMPO VRB15G25KT 2000 TSRA SCT025 SCT040CB
17:30
V
26 °C 10 km+ - 150° 150° 5 kt METAR LFOB 161530Z AUTO 15005KT 110V190 CAVOK 26/15 Q1008 TEMPO VRB15G25KT 2000 TSRA SCT025 SCT040CB
17:00
V
26 °C 10 km+ - 150° 150° 6 kt METAR LFOB 161500Z AUTO 15006KT 120V200 CAVOK 26/15 Q1008 TEMPO VRB15G25KT 2000 TSRA SCT025 SCT040CB
16:30
V
26 °C 10 km+ - Var Var 3 kt METAR LFOB 161430Z AUTO VRB03KT CAVOK 26/15 Q1009 TEMPO VRB15G25KT 2000 TSRA SCT025 SCT040CB
16:00
V
25 °C 10 km+ - Var Var 3 kt METAR LFOB 161400Z AUTO VRB03KT CAVOK 25/15 Q1009 TEMPO VRB15G25KT 2000 TSRA SCT025 SCT040CB
15:30
V
25 °C 10 km+ 7.200 ft 230° 230° 7 kt METAR LFOB 161330Z AUTO 23007KT 180V250 9999 SCT042 BKN072 25/15 Q1009 TEMPO VRB15G25KT 2000 TSRA SCT025 SCT040CB
15:00
V
25 °C 10 km+ - 210° 210° 8 kt METAR LFOB 161300Z AUTO 21008KT 170V250 9999 FEW043 25/15 Q1009 NOSIG
14:30
V
25 °C 10 km+ 4.300 ft 210° 210° 9 kt METAR LFOB 161230Z AUTO 21009KT 9999 BKN043 BKN050 25/15 Q1009 NOSIG
14:00
V
25 °C 10 km+ 4.100 ft 200° 200° 8 kt METAR LFOB 161200Z AUTO 20008KT 160V260 9999 BKN041 BKN047 BKN066 25/15 Q1009 NOSIG
13:30
V
26 °C 10 km+ 4.000 ft 200° 200° 8 kt METAR LFOB 161130Z AUTO 20008KT 160V290 9999 BKN040 BKN047 BKN068 26/15 Q1009 NOSIG
13:00
V
25 °C 10 km+ 4.400 ft 210° 210° 8 kt METAR LFOB 161100Z AUTO 21008KT 160V260 9999 SCT037 BKN044 BKN056 25/15 Q1009 NOSIG
12:30
V
25 °C 10 km+ 17.000 ft 220° 220° 13 kt METAR LFOB 161030Z AUTO 22013KT 9999 FEW044 SCT050 BKN170 25/15 Q1009 NOSIG
12:00
V
24 °C 10 km+ - 200° 200° 11 kt METAR LFOB 161000Z AUTO 20011KT 170V240 CAVOK 24/15 Q1009 NOSIG
11:30
V
24 °C 10 km+ - 210° 210° 10 kt METAR LFOB 160930Z AUTO 21010KT 180V240 CAVOK 24/15 Q1008 NOSIG
11:00
V
25 °C 10 km+ - 200° 200° 9 kt METAR LFOB 160900Z AUTO 20009KT 160V230 CAVOK 25/15 Q1008 NOSIG
10:30
V
22 °C 10 km+ - 140° 140° 4 kt METAR LFOB 160830Z AUTO 14004KT 100V180 CAVOK 22/16 Q1008 NOSIG
10:00
V
21 °C 10 km+ - 140° 140° 4 kt METAR LFOB 160800Z AUTO 14004KT 110V180 CAVOK 21/16 Q1008 NOSIG
09:30
V
20 °C 10 km+ - 140° 140° 5 kt METAR LFOB 160730Z AUTO 14005KT CAVOK 20/16 Q1008 NOSIG
09:00
V
19 °C 10 km+ - 150° 150° 3 kt METAR LFOB 160700Z AUTO 15003KT CAVOK 19/16 Q1008 NOSIG
08:30
V
18 °C 10 km+ - Var Var 2 kt METAR LFOB 160630Z AUTO VRB02KT CAVOK 18/15 Q1008 NOSIG
08:00
V
17 °C 10 km+ - 140° 140° 3 kt METAR LFOB 160600Z AUTO 14003KT CAVOK 17/15 Q1008 NOSIG
07:30
V
16 °C 10 km+ - 060° 060° 3 kt METAR LFOB 160530Z AUTO 06003KT CAVOK 16/14 Q1008 NOSIG
07:00
V
16 °C 10 km+ 15.000 ft Var Var 2 kt METAR LFOB 160500Z AUTO VRB02KT 9999 FEW048 BKN150 BKN220 16/13 Q1007 NOSIG
06:30
V
16 °C 10 km+ - 160° 160° 1 kt METAR LFOB 160430Z AUTO 16001KT CAVOK 16/14 Q1008 NOSIG
06:00
V
15 °C 10 km+ - 070° 070° 3 kt METAR LFOB 160400Z AUTO 07003KT CAVOK 15/13 Q1007 NOSIG
05:30
V
16 °C 10 km+ - Var Var 1 kt METAR LFOB 160330Z AUTO VRB01KT CAVOK 16/13 Q1007 NOSIG
05:00
V
17 °C 10 km+ - Var 000° 0 kt METAR LFOB 160300Z AUTO 00000KT CAVOK 17/14 Q1007 NOSIG
04:30
V
17 °C 10 km+ - 090° 090° 2 kt METAR LFOB 160230Z AUTO 09002KT CAVOK 17/13 Q1007 NOSIG
04:00
V
17 °C 10 km+ - Var Var 2 kt METAR LFOB 160200Z AUTO VRB02KT CAVOK 17/14 Q1007 NOSIG
03:30
V
17 °C 10 km+ - 070° 070° 4 kt METAR LFOB 160130Z AUTO 07004KT CAVOK 17/14 Q1007 NOSIG
03:00
V
18 °C 10 km+ - Var 000° 0 kt METAR LFOB 160100Z AUTO 00000KT CAVOK 18/13 Q1008 NOSIG
02:30
V
18 °C 10 km+ - 300° 300° 3 kt METAR LFOB 160030Z AUTO 30003KT CAVOK 18/14 Q1007 NOSIG
02:00
V
19 °C 10 km+ - 300° 300° 3 kt METAR LFOB 160000Z AUTO 30003KT CAVOK 19/15 Q1007 NOSIG
01:30
V
19 °C 10 km+ - 300° 300° 4 kt METAR LFOB 152330Z AUTO 30004KT CAVOK 19/15 Q1007 NOSIG
01:00
V
20 °C 10 km+ - Var Var 2 kt METAR LFOB 152300Z AUTO VRB02KT CAVOK 20/14 Q1008 TEMPO SCT060CB
00:30
V
20 °C 10 km+ - Var Var 2 kt METAR LFOB 152230Z AUTO VRB02KT CAVOK 20/13 Q1008 TEMPO SCT060CB
00:00
V
20 °C 10 km+ - 310° 310° 5 kt METAR LFOB 152200Z AUTO 31005KT CAVOK 20/14 Q1007 TEMPO SCT060CB

15 août 2022

Temps Code Temps Temp. Vue Base cloud Vent METAR/SPECI
23:30
V
21 °C 10 km+ - 320° 320° 4 kt METAR LFOB 152130Z AUTO 32004KT CAVOK 21/14 Q1007 TEMPO SCT060CB
23:00
V
21 °C 10 km+ - 270° 270° 3 kt METAR LFOB 152100Z AUTO 27003KT 9999 ///CB 21/13 Q1007 BECMG NSC
22:30
V
22 °C 10 km+ - 260° 260° 4 kt METAR LFOB 152030Z AUTO 26004KT 9999 ///CB 22/13 Q1007 BECMG NSC
22:00
V
23 °C 10 km+ 5.600 ft 230° 230° 5 kt METAR LFOB 152000Z AUTO 23005KT 9999 SCT048/// BKN056/// BKN066/// //////CB 23/13 Q1006 BECMG NSC
21:30
V
23 °C 10 km+ - 210° 210° 5 kt METAR LFOB 151930Z AUTO 21005KT 9999 //////TCU 23/13 Q1006 BECMG NSC
21:00
V
24 °C 10 km+ - 220° 220° 8 kt METAR LFOB 151900Z AUTO 22008KT 9999 ///CB 24/14 Q1005 BECMG NSC
20:30
V
26 °C 10 km+ - 230° 230° 9 kt METAR LFOB 151830Z AUTO 23009KT 9999 ///CB 26/13 Q1005 BECMG NSC
20:00
V
27 °C 10 km+ - 200° 200° 5 kt METAR LFOB 151800Z AUTO 20005KT 180V240 9999 ///CB 27/12 Q1005 TEMPO 3000 SHRA
19:30
V
28 °C 10 km+ - 210° 210° 6 kt METAR LFOB 151730Z AUTO 21006KT 170V270 CAVOK 28/12 Q1004 TEMPO 3000 SHRA BKN060CB
19:00
V
28 °C 10 km+ - 220° 220° 6 kt METAR LFOB 151700Z AUTO 22006KT 160V270 CAVOK 28/12 Q1004 TEMPO 3000 SHRA BKN060CB
18:30
V
28 °C 10 km+ - 240° 240° 5 kt METAR LFOB 151630Z AUTO 24005KT 170V280 9999 ///TCU 28/12 Q1004 TEMPO 3000 SHRA BKN060CB
18:00
V
28 °C 10 km+ - 150° 150° 8 kt METAR LFOB 151600Z AUTO 15008KT CAVOK 28/13 Q1005 TEMPO 3000 SHRA BKN060CB
17:30
V
27 °C 10 km+ - 220° 220° 4 kt METAR LFOB 151530Z AUTO 22004KT 150V300 CAVOK 27/12 Q1004 TEMPO 3000 SHRA BKN060CB
17:00
V
28 °C 10 km+ - 140° 140° 5 kt METAR LFOB 151500Z AUTO 14005KT 080V190 CAVOK 28/13 Q1004 TEMPO 1200 TSRA BKN060CB
16:30
V
28 °C 10 km+ - Var Var 3 kt METAR LFOB 151430Z AUTO VRB03KT CAVOK 28/13 Q1004 TEMPO 1200 TSRA BKN060CB
16:00
V
28 °C 10 km+ - Var Var 4 kt METAR LFOB 151400Z AUTO VRB04KT CAVOK 28/13 Q1004 TEMPO 1200 TSRA BKN060CB
15:30
V
27 °C 10 km+ - Var Var 4 kt METAR LFOB 151330Z AUTO VRB04KT CAVOK 27/14 Q1005 TEMPO 1200 TSRA BKN060CB
15:00
V
27 °C 10 km+ 4.400 ft 140° 140° 5 kt METAR LFOB 151300Z AUTO 14005KT 090V190 9999 BKN044 BKN054 27/15 Q1005 TEMPO 1200 TSRA BKN060CB
14:30
V
26 °C 10 km+ 4.300 ft 130° 130° 6 kt METAR LFOB 151230Z AUTO 13006KT 070V190 9999 FEW015 BKN043 26/15 Q1005 TEMPO 1200 TSRA BKN060CB
14:00
V
26 °C 10 km+ 6.200 ft Var Var 6 kt METAR LFOB 151200Z AUTO VRB06KT 9999 FEW038 SCT050 BKN062 26/15 Q1005 TEMPO 1200 TSRA BKN060CB
13:30
V
26 °C 10 km+ 3.600 ft 170° 170° 6 kt METAR LFOB 151130Z AUTO 17006KT 110V230 9999 BKN036 26/16 Q1005 TEMPO 1200 TSRA BKN060CB
13:00
V
24 °C 10 km+ - 150° 150° 7 kt METAR LFOB 151100Z AUTO 15007KT 100V230 9999 SCT033 24/16 Q1005 TEMPO 3000 SHRA BKN060CB
12:30
V
24 °C 10 km+ 3.100 ft 140° 140° 8 kt METAR LFOB 151030Z AUTO 14008KT 100V200 9999 BKN031 24/15 Q1005 TEMPO 3000 SHRA BKN060CB
12:00
V
24 °C 10 km+ - 160° 160° 7 kt METAR LFOB 151000Z AUTO 16007KT 100V210 9999 FEW029 24/16 Q1005 NOSIG
11:30
V
23 °C 10 km+ - 130° 130° 9 kt METAR LFOB 150930Z AUTO 13009KT 100V170 CAVOK 23/17 Q1005 NOSIG
11:00
V
23 °C 10 km+ - 160° 160° 5 kt METAR LFOB 150900Z AUTO 16005KT 100V200 CAVOK 23/17 Q1005 NOSIG
10:30
V
21 °C 8 km - 160° 160° 5 kt METAR LFOB 150830Z AUTO 16005KT 140V200 8000 NSC 21/17 Q1005 NOSIG
10:00
V
19 °C 8 km - 150° 150° 5 kt METAR LFOB 150800Z AUTO 15005KT 130V190 8000 NSC 19/17 Q1005 NOSIG
09:30
M
17 °C 7 km - 130° 130° 3 kt METAR LFOB 150730Z AUTO 13003KT 7000 NSC 17/17 Q1005 NOSIG
09:00
V
16 °C 8 km - Var Var 2 kt METAR LFOB 150700Z AUTO VRB02KT 8000 NSC 16/16 Q1005 TEMPO 0500 FG VV///
08:30
L
16 °C 500 m - Var Var 1 kt METAR LFOB 150630Z AUTO VRB01KT 2400 0500 R30/4600U R12/0700U BCFG FEW001 16/15 Q1005 TEMPO VV/// BECMG 8000 NSW
08:00
L
15 °C 1,3 km - 120° 120° 2 kt METAR LFOB 150600Z AUTO 12002KT 2600 1300 R30/2300N R12/3600D BR NSC 15/15 Q1005 TEMPO 0500 FG VV///
07:30
L
15 °C 500 m - 130° 130° 4 kt METAR LFOB 150530Z AUTO 13004KT 2300 0500 R30/3000N R12/3600D BCFG VV/// 15/15 Q1005 BECMG CAVOK
07:00
L
15 °C 350 m - 130° 130° 3 kt METAR LFOB 150500Z AUTO 13003KT 0550 0350 R30/0600D R12/P5000 FG VV/// 15/15 Q1005 BECMG CAVOK
06:30
L
14 °C 450 m - 150° 150° 4 kt METAR LFOB 150430Z AUTO 15004KT 0600 0450 R30/0750D R12/1500U FG VV/// 14/14 Q1005 BECMG CAVOK
06:00
L
15 °C 600 m - 150° 150° 4 kt METAR LFOB 150400Z AUTO 15004KT 0750 0600 R30/1600D R12/0750N FG VV/// 15/14 Q1005 TEMPO 0500 FG
05:30
L
15 °C 600 m - 120° 120° 3 kt METAR LFOB 150330Z AUTO 12003KT 0900 0600 R30/2400U R12/1100U FG VV/// 15/15 Q1005 TEMPO BKN010 BECMG 9999 NSW
05:00
V
16 °C 10 km+ - 120° 120° 1 kt METAR LFOB 150300Z AUTO 12001KT CAVOK 16/15 Q1005 TEMPO BKN010
04:30
V
17 °C 10 km+ - 120° 120° 2 kt METAR LFOB 150230Z AUTO 12002KT CAVOK 17/16 Q1005 TEMPO BKN010
04:00
V
17 °C 10 km+ - 100° 100° 6 kt METAR LFOB 150200Z AUTO 10006KT CAVOK 17/16 Q1005 TEMPO BKN010
03:30
V
18 °C 10 km+ - Var Var 2 kt METAR LFOB 150130Z AUTO VRB02KT CAVOK 18/16 Q1006 TEMPO BKN010
03:00
V
18 °C 10 km+ - 160° 160° 3 kt METAR LFOB 150100Z AUTO 16003KT CAVOK 18/16 Q1006 TEMPO BKN010
02:30
V
18 °C 10 km+ - 170° 170° 3 kt METAR LFOB 150030Z AUTO 17003KT CAVOK 18/17 Q1006 TEMPO BKN010
02:00
V
19 °C 10 km+ 13.000 ft 160° 160° 3 kt METAR LFOB 150000Z AUTO 16003KT 9999 FEW036 BKN130 BKN160 19/17 Q1006 TEMPO BKN010
01:30
V
19 °C 10 km+ - 100° 100° 4 kt METAR LFOB 142330Z AUTO 10004KT CAVOK 19/17 Q1006 TEMPO BKN010
01:00
V
20 °C 10 km+ - 210° 210° 4 kt METAR LFOB 142300Z AUTO 21004KT 180V240 9999 ///CB 20/17 Q1006 TEMPO BKN010
00:30
V
20 °C 10 km+ 10.000 ft 200° 200° 5 kt METAR LFOB 142230Z AUTO 20005KT 170V240 9999 FEW041/// SCT078/// BKN100/// //////CB 20/17 Q1006 TEMPO BKN010
00:00
V
20 °C 10 km+ 3.800 ft 210° 210° 6 kt METAR LFOB 142200Z AUTO 21006KT 9999 BKN038/// BKN052/// BKN098/// //////CB 20/17 Q1006 TEMPO VRB15G25KT 3000 SHRA BECMG NSC
Données plus anciennes

Nous et des tiers suivons ton comportement sur Internet sur notre site Web à l'aide de cookies. Si tu continues, nous supposons que tu acceptes notre politique en matière de cookies. Apprendre plus